Airfield :







YOU CAN JOIN US ON...

 
LOGIN :

Register | Disclaimer

   EN    FR    IT 

 









Legend :    VFR   Marginal VFR   IFR   Intensive IFR   Very Intensive IFR
Visi :
Ceiling :
>= 8 km
>= 3000ft
5 to 8 km
1000 to 3000 ft
1500m to 5 km
500 to 1000 ft
800 to 1500m
200 to 500 ft
< 800m
< 200 ft
Symbols :   Thunderstorms  Fog  Heavy snow  Heavy precipitations  Wind > 20 kt







- Airport Elevation : 1709 ft
- IATA code : YKL


CYKL - Schefferville

CURRENT METAR :
  • 190500Z AUTO VRB02KT 9SM CLR 07/01 A3003 RMK SLP186

EXPIRED METARs :
  • 190400Z AUTO 00000KT 9SM CLR 08/00 A3004 RMK SLP188

TAF TAF CYKL
Valid from the 19 at 02:00 until the 19 at 14:00 UTC


190138Z 1902/1914 VRB03KT P6SM SCT260
FM190400 24008KT P6SM SKC
FM191200 23012KT P6SM SCT010
PROB30 1912/1914 4SM BR BKN008 RMK FCST BASED ON AUTO OBS. NXT FCST BY 190800Z
No reported NOTAMs for that airfield.



MET'MAP, your aeronautical weather chart ! - Copyright ORBIFLY December 2007 - Disclaimer

ORBIFLY MET'MAP TEAM :

Programming & Development : Alexandra Zaïnal
Concept & Development : Baudouin d'Aumeries
Co-Development & Prog : Marc-Olivier Méhu
Technical & hardware support : Manuel Goepfert

Contact : metmap@orbifly.com




SOURCES & CREDITS :

   NOAA